createdAt,value
2018-03-01T00:01:56.715Z,32.50
2018-03-01T00:04:24.519Z,34.10
2018-03-01T00:06:52.260Z,31.50
2018-03-01T00:09:20.012Z,30.60
2018-03-01T00:11:47.746Z,35.80
2018-03-01T00:14:15.531Z,29.80
2018-03-01T00:16:43.317Z,32.57
2018-03-01T00:19:11.043Z,31.60
2018-03-01T00:21:38.822Z,32.87
2018-03-01T00:24:06.631Z,32.80
2018-03-01T00:26:34.367Z,32.77
2018-03-01T00:29:02.153Z,33.20
2018-03-01T00:31:29.890Z,29.30
2018-03-01T00:33:57.980Z,33.63
2018-03-01T00:36:25.801Z,33.07
2018-03-01T00:38:53.629Z,31.90
2018-03-01T00:41:21.352Z,32.17
2018-03-01T00:43:49.099Z,31.20
2018-03-01T00:46:16.835Z,30.30
2018-03-01T00:48:44.618Z,29.97
2018-03-01T00:51:12.352Z,33.00
2018-03-01T00:53:40.075Z,34.63
2018-03-01T00:56:07.848Z,30.83
2018-03-01T00:58:35.621Z,34.27
2018-03-01T01:01:03.425Z,31.17
2018-03-01T01:03:31.219Z,32.53
2018-03-01T01:05:58.950Z,31.10
2018-03-01T01:08:26.755Z,30.97
2018-03-01T01:10:54.547Z,32.37
2018-03-01T01:13:22.342Z,35.87
2018-03-01T01:15:50.137Z,32.70
2018-03-01T01:18:17.888Z,33.27
2018-03-01T01:20:45.618Z,34.33
2018-03-01T01:23:13.408Z,37.30
2018-03-01T01:25:41.209Z,31.07
2018-03-01T01:28:08.983Z,34.20
2018-03-01T01:30:36.717Z,33.70
2018-03-01T01:33:04.499Z,29.13
2018-03-01T01:35:32.291Z,34.40
2018-03-01T01:38:00.009Z,33.03
2018-03-01T01:40:27.763Z,32.10
2018-03-01T01:42:55.555Z,36.10
2018-03-01T01:45:23.305Z,33.53
2018-03-01T01:47:51.049Z,31.17
2018-03-01T01:50:18.829Z,33.60
2018-03-01T01:52:46.665Z,36.27
2018-03-01T01:55:14.416Z,38.27
2018-03-01T01:57:42.164Z,34.10
2018-03-01T02:00:09.971Z,38.30
2018-03-01T02:02:37.725Z,34.17
2018-03-01T02:05:05.475Z,36.47
2018-03-01T02:07:33.202Z,33.13
2018-03-01T02:10:01.056Z,35.97
2018-03-01T02:12:28.864Z,33.47
2018-03-01T02:14:56.671Z,37.73
2018-03-01T02:17:24.405Z,36.50
2018-03-01T02:19:52.175Z,34.73
2018-03-01T02:22:20.745Z,41.67
2018-03-01T02:24:48.496Z,38.73
2018-03-01T02:27:16.230Z,37.30
2018-03-01T02:29:43.988Z,37.53
2018-03-01T02:32:11.807Z,34.73
2018-03-01T02:34:39.568Z,36.30
2018-03-01T02:37:07.375Z,35.23
2018-03-01T02:39:35.134Z,37.10
2018-03-01T02:42:02.859Z,37.43
2018-03-01T02:44:30.642Z,34.30
2018-03-01T02:46:58.431Z,37.37
2018-03-01T02:49:26.193Z,34.93
2018-03-01T02:51:53.956Z,37.70
2018-03-01T02:54:21.836Z,37.00
2018-03-01T02:56:50.337Z,39.13
2018-03-01T02:59:18.124Z,43.00
2018-03-01T03:01:45.838Z,39.43
2018-03-01T03:04:13.581Z,42.70
2018-03-01T03:06:41.334Z,49.13
2018-03-01T03:09:09.111Z,43.30
2018-03-01T03:11:36.917Z,45.00
2018-03-01T03:14:04.700Z,43.00
2018-03-01T03:16:32.482Z,44.83
2018-03-01T03:19:00.224Z,46.70
2018-03-01T03:21:27.947Z,47.57
2018-03-01T03:23:55.696Z,48.17
2018-03-01T03:26:23.425Z,46.77
2018-03-01T03:28:51.147Z,53.87
2018-03-01T03:31:18.921Z,50.30
2018-03-01T03:33:47.532Z,50.87
2018-03-01T03:36:15.307Z,50.40
2018-03-01T03:38:43.032Z,54.40
2018-03-01T03:41:10.817Z,47.27
2018-03-01T03:43:39.005Z,45.33
2018-03-01T03:46:07.535Z,52.57
2018-03-01T03:48:35.299Z,47.37
2018-03-01T03:51:03.088Z,52.60
2018-03-01T03:53:30.871Z,50.73
2018-03-01T03:55:58.630Z,50.73
2018-03-01T03:58:26.374Z,47.73
2018-03-01T04:00:54.109Z,49.10
2018-03-01T04:03:21.886Z,48.27
2018-03-01T04:05:49.659Z,46.40
2018-03-01T04:08:17.404Z,45.13
2018-03-01T04:10:45.131Z,49.00
2018-03-01T04:13:12.914Z,48.00
2018-03-01T04:15:40.723Z,55.63
2018-03-01T04:18:08.443Z,53.43
2018-03-01T04:20:36.224Z,53.67
2018-03-01T04:23:03.979Z,45.27
2018-03-01T04:25:31.727Z,47.27
2018-03-01T04:27:59.471Z,45.63
2018-03-01T04:30:27.263Z,48.13
2018-03-01T04:32:55.110Z,53.30
2018-03-01T04:35:22.909Z,47.80
2018-03-01T04:37:50.667Z,49.03
2018-03-01T04:40:18.431Z,50.40
2018-03-01T04:42:46.192Z,50.60
2018-03-01T04:45:16.418Z,52.83
2018-03-01T04:47:44.203Z,51.73
2018-03-01T04:50:11.996Z,55.73
2018-03-01T04:52:39.747Z,56.27
2018-03-01T04:55:07.473Z,53.93
2018-03-01T04:57:35.211Z,52.43
2018-03-01T05:00:02.960Z,50.30
2018-03-01T05:02:30.693Z,54.93
2018-03-01T05:04:58.484Z,55.10
2018-03-01T05:07:26.203Z,52.37
2018-03-01T05:09:54.007Z,56.20
2018-03-01T05:12:21.734Z,53.43
2018-03-01T05:14:49.453Z,57.27
2018-03-01T05:17:17.943Z,52.90
2018-03-01T05:19:45.726Z,48.33
2018-03-01T05:22:13.542Z,53.73
2018-03-01T05:24:41.277Z,55.73
2018-03-01T05:27:09.051Z,55.17
2018-03-01T05:29:36.805Z,49.80
2018-03-01T05:32:05.343Z,59.43
2018-03-01T05:34:33.855Z,51.67
2018-03-01T05:37:01.617Z,50.20
2018-03-01T05:39:29.359Z,53.73
2018-03-01T05:41:57.167Z,54.30
2018-03-01T05:44:24.986Z,54.60
2018-03-01T05:46:52.732Z,54.50
2018-03-01T05:49:20.474Z,53.90
2018-03-01T05:51:48.347Z,57.30
2018-03-01T05:54:16.072Z,50.77
2018-03-01T05:56:43.859Z,57.03
2018-03-01T05:59:11.603Z,56.90
2018-03-01T06:01:39.357Z,57.50
2018-03-01T06:04:07.148Z,54.23
2018-03-01T06:06:34.883Z,54.57
2018-03-01T06:09:02.640Z,52.10
2018-03-01T06:11:30.427Z,52.83
2018-03-01T06:13:58.171Z,54.73
2018-03-01T06:16:25.978Z,52.93
2018-03-01T06:18:53.764Z,53.60
2018-03-01T06:21:21.518Z,55.83
2018-03-01T06:23:49.269Z,55.43
2018-03-01T06:26:17.038Z,50.70
2018-03-01T06:28:44.840Z,52.97
2018-03-01T06:31:12.661Z,50.17
2018-03-01T06:33:41.384Z,54.80
2018-03-01T06:36:09.121Z,57.77
2018-03-01T06:38:37.629Z,49.40
2018-03-01T06:41:05.379Z,50.43
2018-03-01T06:43:33.222Z,54.27
2018-03-01T06:46:00.939Z,57.23
2018-03-01T06:48:28.675Z,55.17
2018-03-01T06:50:56.536Z,53.53
2018-03-01T06:53:24.297Z,54.30
2018-03-01T06:55:52.132Z,51.93
2018-03-01T06:58:19.910Z,50.53
2018-03-01T07:00:49.056Z,51.63
2018-03-01T07:03:16.975Z,57.97
2018-03-01T07:05:44.807Z,51.53
2018-03-01T07:08:12.700Z,52.03
2018-03-01T07:10:41.221Z,52.00
2018-03-01T07:13:09.776Z,48.20
2018-03-01T07:15:37.581Z,47.60
2018-03-01T07:18:05.344Z,47.93
2018-03-01T07:20:33.142Z,45.07
2018-03-01T07:23:00.950Z,50.03
2018-03-01T07:25:28.815Z,49.53
2018-03-01T07:27:56.564Z,48.60
2018-03-01T07:30:24.326Z,52.70
2018-03-01T07:32:52.099Z,51.50
2018-03-01T07:35:19.874Z,54.40
2018-03-01T07:37:47.713Z,52.70
2018-03-01T07:40:15.435Z,49.27
2018-03-01T07:42:43.222Z,48.47
2018-03-01T07:45:11.057Z,47.73
2018-03-01T07:47:38.869Z,50.37
2018-03-01T07:50:06.595Z,50.93
2018-03-01T07:52:34.340Z,52.40
2018-03-01T07:55:02.134Z,48.70
2018-03-01T07:57:29.920Z,45.57
2018-03-01T07:59:58.169Z,46.43
2018-03-01T08:02:25.961Z,53.57
2018-03-01T08:04:53.697Z,50.90
2018-03-01T08:07:21.434Z,52.83
2018-03-01T08:09:49.213Z,54.97
2018-03-01T08:12:16.955Z,50.67
2018-03-01T08:14:44.739Z,47.57
2018-03-01T08:17:12.478Z,44.47
2018-03-01T08:19:40.286Z,49.37
2018-03-01T08:22:08.076Z,50.93
2018-03-01T08:24:35.850Z,51.70
2018-03-01T08:27:03.571Z,55.23
2018-03-01T08:29:31.323Z,54.27
2018-03-01T08:31:59.067Z,55.03
2018-03-01T08:34:27.616Z,53.43
2018-03-01T08:36:55.357Z,53.07
2018-03-01T08:39:23.670Z,54.80
2018-03-01T08:41:51.496Z,50.07
2018-03-01T08:44:19.275Z,51.77
2018-03-01T08:46:47.033Z,59.17
2018-03-01T08:49:14.780Z,56.97
2018-03-01T08:51:42.626Z,50.50
2018-03-01T08:54:10.417Z,52.30
2018-03-01T08:56:38.131Z,50.50
2018-03-01T08:59:05.935Z,57.80
2018-03-01T09:01:33.755Z,51.57
2018-03-01T09:04:01.507Z,54.60
2018-03-01T09:06:29.298Z,57.40
2018-03-01T09:08:57.028Z,52.80
2018-03-01T09:11:24.769Z,52.57
2018-03-01T09:13:52.508Z,51.10
2018-03-01T09:16:20.311Z,49.60
2018-03-01T09:18:48.052Z,48.83
2018-03-01T09:21:15.795Z,53.73
2018-03-01T09:23:43.546Z,49.40
2018-03-01T09:26:11.282Z,58.47
2018-03-01T09:28:39.036Z,58.87
2018-03-01T09:31:06.782Z,59.60
2018-03-01T09:33:34.578Z,61.03
2018-03-01T09:36:02.378Z,56.33
2018-03-01T09:38:30.222Z,54.47
2018-03-01T09:40:57.957Z,50.33
2018-03-01T09:43:25.749Z,56.30
2018-03-01T09:45:53.613Z,50.37
2018-03-01T09:48:21.354Z,51.23
2018-03-01T09:50:49.851Z,52.67
2018-03-01T09:53:17.588Z,53.03
2018-03-01T09:55:45.327Z,60.10
2018-03-01T09:58:13.052Z,59.87
2018-03-01T10:00:40.794Z,49.80
2018-03-01T10:03:08.588Z,47.37
2018-03-01T10:05:36.372Z,51.97
2018-03-01T10:08:04.110Z,48.80
2018-03-01T10:10:32.662Z,50.00
2018-03-01T10:13:00.422Z,52.57
2018-03-01T10:15:28.224Z,49.33
2018-03-01T10:17:56.006Z,50.47
2018-03-01T10:20:23.792Z,57.70
2018-03-01T10:22:51.570Z,51.87
2018-03-01T10:25:19.356Z,51.60
2018-03-01T10:27:47.085Z,50.10
2018-03-01T10:30:14.872Z,53.50
2018-03-01T10:32:44.412Z,50.27
2018-03-01T10:35:12.246Z,52.33
2018-03-01T10:37:40.049Z,56.43
2018-03-01T10:40:07.854Z,55.10
2018-03-01T10:42:35.660Z,58.03
2018-03-01T10:45:03.460Z,50.40
2018-03-01T10:47:31.265Z,50.33
2018-03-01T10:49:59.157Z,47.73
2018-03-01T10:52:26.930Z,49.13
2018-03-01T10:54:54.666Z,51.17
2018-03-01T10:57:22.452Z,58.53
2018-03-01T10:59:50.182Z,52.17
2018-03-01T11:02:17.985Z,50.43
2018-03-01T11:04:45.758Z,52.07
2018-03-01T11:07:13.496Z,50.87
2018-03-01T11:09:41.239Z,50.83
2018-03-01T11:12:09.035Z,50.97
2018-03-01T11:14:36.820Z,50.37
2018-03-01T11:17:04.617Z,51.97
2018-03-01T11:19:32.432Z,47.57
2018-03-01T11:22:00.178Z,51.70
2018-03-01T11:24:28.767Z,50.20
2018-03-01T11:26:56.515Z,51.00
2018-03-01T11:29:24.347Z,54.63
2018-03-01T11:31:52.125Z,53.77
2018-03-01T11:34:19.962Z,50.13
2018-03-01T11:36:47.757Z,55.43
2018-03-01T11:39:15.502Z,53.70
2018-03-01T11:41:43.287Z,60.13
2018-03-01T11:44:11.043Z,58.60
2018-03-01T11:46:38.770Z,51.93
2018-03-01T11:49:07.356Z,55.53
2018-03-01T11:51:35.206Z,53.23
2018-03-01T11:54:03.813Z,48.77
2018-03-01T11:56:31.556Z,53.97
2018-03-01T11:58:59.284Z,51.43
2018-03-01T12:01:27.055Z,52.23
2018-03-01T12:03:54.840Z,50.63
2018-03-01T12:06:22.600Z,48.13
2018-03-01T12:08:50.384Z,51.57
2018-03-01T12:11:18.112Z,51.77
2018-03-01T12:13:45.878Z,52.97
2018-03-01T12:16:13.621Z,53.60
2018-03-01T12:18:41.353Z,51.27
2018-03-01T12:21:09.154Z,50.50
2018-03-01T12:23:36.938Z,52.67
2018-03-01T12:26:04.696Z,49.10
2018-03-01T12:28:32.441Z,48.50
2018-03-01T12:31:00.164Z,53.43
2018-03-01T12:33:27.927Z,54.10
2018-03-01T12:35:55.668Z,50.30
2018-03-01T12:38:23.393Z,54.53
2018-03-01T12:40:51.904Z,52.23
2018-03-01T12:43:19.650Z,57.43
2018-03-01T12:45:47.435Z,58.13
2018-03-01T12:48:15.179Z,54.47
2018-03-01T12:50:42.932Z,57.70
2018-03-01T12:53:10.782Z,54.03
2018-03-01T12:55:38.593Z,59.80
2018-03-01T12:58:06.416Z,62.80
2018-03-01T13:00:34.188Z,57.37
2018-03-01T13:03:01.958Z,57.83
2018-03-01T13:05:29.743Z,62.80
2018-03-01T13:07:58.391Z,57.67
2018-03-01T13:10:26.180Z,58.60
2018-03-01T13:12:54.013Z,54.43
2018-03-01T13:15:21.756Z,57.97
2018-03-01T13:17:49.562Z,61.07
2018-03-01T13:20:17.357Z,59.70
2018-03-01T13:22:45.166Z,60.57
2018-03-01T13:25:12.957Z,79.53
2018-03-01T13:27:40.770Z,55.50
2018-03-01T13:30:11.186Z,67.27
2018-03-01T13:32:41.486Z,57.77
2018-03-01T13:35:13.994Z,55.87
2018-03-01T13:37:42.573Z,57.37
2018-03-01T13:40:10.356Z,54.50
2018-03-01T13:55:58.737Z,54.83
2018-03-01T13:58:26.551Z,57.00
2018-03-01T14:00:55.141Z,53.40
2018-03-01T14:03:23.690Z,49.77
2018-03-01T14:05:52.098Z,52.13
2018-03-01T14:08:19.867Z,50.70
2018-03-01T14:10:47.651Z,50.00
2018-03-01T14:13:18.291Z,53.80
2018-03-01T14:15:46.308Z,57.70
2018-03-01T14:18:19.667Z,52.00
2018-03-01T14:34:12.066Z,52.43
2018-03-01T14:36:39.800Z,56.17
2018-03-01T14:39:07.562Z,49.17
2018-03-01T14:41:35.317Z,52.53
2018-03-01T14:44:03.126Z,52.50
2018-03-01T14:46:31.966Z,50.73
2018-03-01T15:04:59.416Z,58.60
2018-03-01T15:07:27.195Z,56.03
2018-03-01T15:09:54.988Z,54.53
2018-03-01T15:12:22.862Z,52.97
2018-03-01T15:14:50.671Z,53.47
2018-03-01T15:17:18.406Z,55.30
2018-03-01T15:19:46.183Z,51.67
2018-03-01T15:22:13.985Z,50.77
2018-03-01T15:24:41.711Z,52.23
2018-03-01T15:27:09.470Z,52.30
2018-03-01T15:29:37.205Z,56.23
2018-03-01T15:32:04.961Z,51.10
2018-03-01T15:34:32.695Z,52.13
2018-03-01T15:37:00.443Z,51.07
2018-03-01T15:39:28.170Z,53.53
2018-03-01T15:41:55.909Z,54.37
2018-03-01T15:44:23.726Z,60.60
2018-03-01T15:46:52.269Z,57.27
2018-03-01T15:49:20.031Z,54.13
2018-03-01T15:51:47.755Z,58.43
2018-03-01T15:54:15.592Z,57.17
2018-03-01T15:56:43.395Z,57.57
2018-03-01T15:59:11.129Z,55.70
2018-03-01T16:01:41.729Z,59.67
2018-03-01T16:04:09.535Z,53.83
2018-03-01T16:06:38.173Z,60.90
2018-03-01T16:09:05.916Z,58.57
2018-03-01T16:11:34.442Z,62.43
2018-03-01T16:14:02.207Z,61.60
2018-03-01T16:16:30.012Z,57.60
2018-03-01T16:18:58.595Z,57.07
2018-03-01T16:21:42.724Z,62.57
2018-03-01T16:24:10.567Z,58.90
2018-03-01T16:26:38.381Z,60.53
2018-03-01T16:29:06.187Z,53.93
2018-03-01T16:31:34.010Z,55.90
2018-03-01T16:34:02.567Z,50.27
2018-03-01T16:36:30.361Z,50.97
2018-03-01T16:38:58.156Z,53.50
2018-03-01T16:41:25.960Z,55.70
2018-03-01T16:43:53.761Z,50.20
2018-03-01T16:46:22.372Z,60.87
2018-03-01T16:48:50.182Z,55.97
2018-03-01T16:51:17.945Z,47.40
2018-03-01T16:53:46.037Z,54.67
2018-03-01T16:56:13.815Z,57.67
2018-03-01T16:58:41.631Z,57.20
2018-03-01T17:01:09.468Z,51.87
2018-03-01T17:03:37.357Z,47.57
2018-03-01T17:06:05.296Z,50.30
2018-03-01T17:08:33.089Z,54.43
2018-03-01T17:11:01.499Z,52.03
2018-03-01T17:13:29.286Z,55.90
2018-03-01T17:15:57.176Z,52.23
2018-03-01T17:18:25.726Z,54.57
2018-03-01T17:20:53.503Z,52.23
2018-03-01T17:23:21.372Z,52.00
2018-03-01T17:25:49.198Z,53.77
2018-03-01T17:28:17.144Z,45.70
2018-03-01T17:30:45.729Z,48.83
2018-03-01T17:33:13.651Z,53.60
2018-03-01T17:35:41.512Z,54.60
2018-03-01T17:38:09.310Z,51.97
2018-03-01T17:40:37.102Z,51.43
2018-03-01T17:43:05.109Z,49.30
2018-03-01T17:45:34.280Z,53.90
2018-03-01T17:48:02.868Z,52.37
2018-03-01T17:50:30.616Z,60.07
2018-03-01T17:52:58.533Z,52.13
2018-03-01T17:55:26.541Z,50.50
2018-03-01T17:57:54.318Z,54.30
2018-03-01T18:00:22.193Z,58.20
2018-03-01T18:02:50.952Z,48.43
2018-03-01T18:05:18.906Z,51.27
2018-03-01T18:07:46.717Z,56.87
2018-03-01T18:10:20.241Z,54.13
2018-03-01T18:13:01.112Z,52.83
2018-03-01T18:15:29.669Z,50.17
2018-03-01T18:18:02.651Z,50.90
2018-03-01T18:20:30.544Z,45.30
2018-03-01T18:22:58.398Z,46.73
2018-03-01T18:25:26.279Z,48.93
2018-03-01T18:27:54.097Z,49.43
2018-03-01T18:30:21.942Z,46.90
2018-03-01T18:32:49.665Z,43.40
2018-03-01T18:35:19.527Z,45.30
2018-03-01T18:37:48.098Z,45.70
2018-03-01T18:40:16.006Z,49.07
2018-03-01T18:42:43.894Z,42.60
2018-03-01T18:45:11.790Z,39.50
2018-03-01T18:47:39.585Z,44.90
2018-03-01T18:50:08.163Z,45.30
2018-03-01T18:52:36.694Z,43.80
2018-03-01T18:55:04.467Z,39.03
2018-03-01T18:57:32.343Z,44.43
2018-03-01T19:00:00.168Z,41.27
2018-03-01T19:02:28.017Z,40.37
2018-03-01T19:04:55.788Z,41.67
2018-03-01T19:07:23.770Z,39.23
2018-03-01T19:09:51.555Z,37.57
2018-03-01T19:12:23.408Z,48.60
2018-03-01T19:14:51.723Z,50.00
2018-03-01T19:17:19.528Z,46.43
2018-03-01T19:19:48.047Z,47.37
2018-03-01T19:22:20.494Z,50.33
2018-03-01T19:24:49.030Z,47.40
2018-03-01T19:27:16.811Z,46.13
2018-03-01T19:29:45.469Z,45.90
2018-03-01T19:32:13.209Z,44.33
2018-03-01T19:34:41.774Z,45.60
2018-03-01T19:37:16.935Z,44.80
2018-03-01T19:39:45.494Z,42.97
2018-03-01T19:42:13.265Z,45.40
2018-03-01T19:44:41.024Z,47.50
2018-03-01T19:47:13.190Z,49.90
2018-03-01T19:49:44.836Z,46.13
2018-03-01T19:52:13.327Z,46.20
2018-03-01T19:54:41.068Z,48.30
2018-03-01T19:57:08.872Z,45.97
2018-03-01T19:59:36.626Z,49.23
2018-03-01T20:02:04.444Z,50.83
2018-03-01T20:04:37.224Z,45.13
2018-03-01T20:07:06.354Z,44.43
2018-03-01T20:09:34.866Z,50.00
2018-03-01T20:12:02.645Z,43.83
2018-03-01T20:14:30.657Z,43.57
2018-03-01T20:16:59.509Z,49.03
2018-03-01T20:19:32.170Z,49.20
2018-03-01T20:22:00.007Z,47.80
2018-03-01T20:24:28.976Z,48.63
2018-03-01T20:26:56.809Z,45.23
2018-03-01T20:29:30.185Z,55.80
2018-03-01T20:31:58.946Z,57.07
2018-03-01T20:34:26.741Z,48.87
2018-03-01T20:36:54.486Z,47.20
2018-03-01T20:39:22.226Z,51.47
2018-03-01T20:41:50.020Z,47.47
2018-03-01T20:44:18.422Z,56.47
2018-03-01T20:46:46.194Z,49.27
2018-03-01T20:49:13.948Z,48.17
2018-03-01T20:51:46.585Z,45.67
2018-03-01T20:54:14.398Z,48.77
2018-03-01T20:56:42.743Z,51.50
2018-03-01T20:59:11.390Z,49.03
2018-03-01T21:01:39.193Z,53.97
2018-03-01T21:04:11.417Z,51.13
2018-03-01T21:06:43.115Z,45.87
2018-03-01T21:09:11.033Z,51.13
2018-03-01T21:14:11.736Z,52.57
2018-03-01T21:16:39.523Z,54.07
2018-03-01T21:19:12.276Z,55.77
2018-03-01T21:21:45.457Z,57.50
2018-03-01T21:24:13.224Z,59.30
2018-03-01T21:26:41.070Z,57.67
2018-03-01T21:29:08.869Z,60.90
2018-03-01T21:31:36.614Z,59.50
2018-03-01T21:34:04.400Z,60.20
2018-03-01T21:36:34.689Z,62.73
2018-03-01T21:39:02.504Z,59.33
2018-03-01T21:41:30.280Z,59.80
2018-03-01T21:43:58.842Z,66.73
2018-03-01T21:46:26.644Z,60.80
2018-03-01T21:48:54.447Z,62.87
2018-03-01T21:51:22.268Z,66.43
2018-03-01T21:53:50.079Z,60.97
2018-03-01T21:56:17.950Z,61.97
2018-03-01T21:58:45.710Z,60.40
2018-03-01T22:01:13.509Z,57.67
2018-03-01T22:03:41.268Z,60.27
2018-03-01T22:06:09.283Z,61.90
2018-03-01T22:08:37.112Z,61.03
2018-03-01T22:11:04.836Z,62.67
2018-03-01T22:13:32.618Z,62.90
2018-03-01T22:16:00.385Z,68.07
2018-03-01T22:18:28.165Z,59.50
2018-03-01T22:20:55.904Z,64.93
2018-03-01T22:23:23.707Z,62.87
2018-03-01T22:25:51.524Z,62.17
2018-03-01T22:28:19.306Z,58.27
2018-03-01T22:30:47.078Z,67.10
2018-03-01T22:33:14.962Z,61.40
2018-03-01T22:35:42.750Z,63.00
2018-03-01T22:38:10.589Z,57.67
2018-03-01T22:40:38.380Z,56.73
2018-03-01T22:43:06.133Z,60.57
2018-03-01T22:45:33.952Z,61.80
2018-03-01T22:48:01.739Z,62.17
2018-03-01T22:50:29.783Z,63.03
2018-03-01T22:52:57.655Z,67.43
2018-03-01T22:55:25.416Z,63.57
2018-03-01T22:57:53.207Z,59.87
2018-03-01T23:00:32.694Z,60.90
2018-03-01T23:03:00.484Z,64.47
2018-03-01T23:05:28.239Z,66.23
2018-03-01T23:07:55.979Z,61.97
2018-03-01T23:10:23.727Z,64.00
2018-03-01T23:12:51.541Z,61.00
2018-03-01T23:15:19.356Z,66.87
2018-03-01T23:17:47.912Z,63.60
2018-03-01T23:20:15.660Z,62.03
2018-03-01T23:22:44.172Z,62.60
2018-03-01T23:25:12.015Z,63.53
2018-03-01T23:27:39.964Z,58.17
2018-03-01T23:30:07.687Z,57.73
2018-03-01T23:32:35.420Z,62.43
2018-03-01T23:35:03.225Z,62.87
2018-03-01T23:37:31.002Z,60.90
2018-03-01T23:39:58.766Z,65.17
2018-03-01T23:42:26.554Z,55.80
2018-03-01T23:44:54.332Z,55.60
2018-03-01T23:47:22.074Z,53.17
2018-03-01T23:49:49.873Z,52.30
2018-03-01T23:52:17.621Z,51.53
2018-03-01T23:54:45.364Z,52.07
2018-03-01T23:57:13.182Z,52.63
2018-03-01T23:59:40.929Z,49.80
